Time;durP1;ratioP1;P1;durP2;ratioP2;P2;SDS_P1;SDS_P2;PMS_P1;PMS_P2;Temp;Humidity;BMP_temperature;BMP_pressure;BME280_temperature;BME280_humidity;BME280_pressure;Samples;Min_cycle;Max_cycle;Signal;HPM_P1;HPM_P2
2022/01/11 00:00:17;;;;;;;95.65;59.75;;;1.50;99.90;;;;;;5077009;28;20284;-48
2022/01/11 00:02:44;;;;;;;106.20;61.35;;;1.50;99.90;;;;;;5076656;28;20299;-47
2022/01/11 00:05:21;;;;;;;98.22;57.28;;;1.60;99.90;;;;;;5076672;28;20299;-47
2022/01/11 00:07:48;;;;;;;99.20;60.17;;;1.40;99.90;;;;;;5076279;28;20225;-47
2022/01/11 00:10:22;;;;;;;90.97;57.58;;;1.50;99.90;;;;;;5076499;28;20215;-46
2022/01/11 00:12:49;;;;;;;103.07;61.28;;;1.40;99.90;;;;;;5076674;28;20187;-46
2022/01/11 00:15:16;;;;;;;105.45;60.05;;;1.40;99.90;;;;;;5077046;28;20200;-47
2022/01/11 00:17:42;;;;;;;104.70;59.38;;;1.40;99.90;;;;;;5058344;28;20203;-47
2022/01/11 00:20:12;;;;;;;104.97;58.15;;;1.40;99.90;;;;;;5076747;28;20223;-47
2022/01/11 00:24:26;;;;;;;108.70;62.60;;;1.30;99.90;;;;;;5076725;28;20227;-47
2022/01/11 00:25:30;;;;;;;99.72;61.70;;;1.30;99.90;;;;;;5076739;28;20278;-47
2022/01/11 00:27:57;;;;;;;102.22;59.33;;;1.30;99.90;;;;;;5076211;28;20187;-46
2022/01/11 00:30:30;;;;;;;108.50;61.85;;;1.20;99.90;;;;;;5058776;28;20253;-47
2022/01/11 00:32:59;;;;;;;97.60;61.50;;;1.20;99.90;;;;;;5076506;28;20211;-47
2022/01/11 00:35:28;;;;;;;109.47;60.40;;;1.10;99.90;;;;;;5058757;28;20622;-47
2022/01/11 00:37:56;;;;;;;105.40;60.05;;;1.20;99.90;;;;;;5058681;28;20210;-47
2022/01/11 00:40:24;;;;;;;105.55;63.63;;;1.20;99.90;;;;;;5076436;28;20215;-47
2022/01/11 00:42:52;;;;;;;110.93;62.22;;;1.20;99.90;;;;;;5076203;28;20238;-47
2022/01/11 00:45:19;;;;;;;108.22;66.70;;;1.20;99.90;;;;;;5076877;28;20202;-47
2022/01/11 00:47:46;;;;;;;116.57;62.78;;;1.30;99.90;;;;;;5058231;28;20596;-47
2022/01/11 00:50:12;;;;;;;107.68;64.63;;;1.30;99.90;;;;;;5058233;28;20222;-47
2022/01/11 00:52:39;;;;;;;116.10;63.92;;;1.30;99.90;;;;;;5076156;28;20199;-47
2022/01/11 00:55:08;;;;;;;107.97;63.90;;;1.30;99.90;;;;;;5076472;28;20195;-47
2022/01/11 00:57:35;;;;;;;111.70;62.90;;;1.30;99.90;;;;;;5076606;28;20187;-47
2022/01/11 01:00:02;;;;;;;117.60;62.40;;;1.30;99.90;;;;;;5057945;28;20593;-47
2022/01/11 01:02:28;;;;;;;116.20;66.82;;;1.20;99.90;;;;;;5076298;28;20699;-47
2022/01/11 01:04:55;;;;;;;108.25;62.97;;;1.20;99.90;;;;;;5076326;28;20195;-47
2022/01/11 01:07:22;;;;;;;114.93;68.57;;;1.30;99.90;;;;;;5058354;28;20298;-47
2022/01/11 01:09:58;;;;;;;121.10;64.93;;;1.30;99.90;;;;;;5057633;28;20231;-47
2022/01/11 01:12:26;;;;;;;116.72;67.28;;;1.20;99.90;;;;;;5057977;28;20191;-47
2022/01/11 01:14:53;;;;;;;117.85;64.95;;;1.30;99.90;;;;;;5057651;28;20195;-47
2022/01/11 01:17:20;;;;;;;117.05;65.82;;;1.30;99.90;;;;;;5075548;28;20280;-47
2022/01/11 01:19:47;;;;;;;121.75;64.55;;;1.30;99.90;;;;;;5057191;28;20219;-47
2022/01/11 01:22:14;;;;;;;112.75;64.15;;;1.30;99.90;;;;;;5075661;28;20211;-47
2022/01/11 01:24:42;;;;;;;106.47;61.88;;;1.30;99.90;;;;;;5057875;28;20203;-46
2022/01/11 01:27:09;;;;;;;109.72;60.13;;;1.40;99.90;;;;;;5057610;28;20202;-48
2022/01/11 01:29:38;;;;;;;119.43;65.47;;;1.30;99.90;;;;;;5075267;28;20226;-47
2022/01/11 01:32:06;;;;;;;116.50;63.08;;;1.30;99.90;;;;;;5075577;28;20723;-46
2022/01/11 01:34:32;;;;;;;112.78;63.60;;;1.30;99.90;;;;;;5057271;28;20209;-47
2022/01/11 01:36:59;;;;;;;117.85;65.43;;;1.30;99.90;;;;;;5075100;28;20202;-47
2022/01/11 01:39:26;;;;;;;111.10;63.80;;;1.30;99.90;;;;;;5074328;28;20587;-48
2022/01/11 01:41:53;;;;;;;113.43;62.72;;;1.20;99.90;;;;;;5075440;28;20219;-46
2022/01/11 01:44:20;;;;;;;121.97;64.57;;;1.30;99.90;;;;;;5074756;28;20187;-47
2022/01/11 01:46:48;;;;;;;117.55;62.13;;;1.30;99.90;;;;;;5057365;28;20195;-47
2022/01/11 01:49:18;;;;;;;114.50;61.60;;;1.30;99.90;;;;;;5074780;28;20284;-46
2022/01/11 01:51:45;;;;;;;112.93;60.53;;;1.30;99.90;;;;;;5056688;28;20203;-47
2022/01/11 01:54:13;;;;;;;126.88;62.75;;;1.30;99.90;;;;;;5075080;28;20727;-48
2022/01/11 01:56:40;;;;;;;116.40;58.13;;;1.30;99.90;;;;;;5075230;28;20195;-46
2022/01/11 01:59:07;;;;;;;113.10;59.33;;;1.30;99.90;;;;;;5056864;28;20241;-46
2022/01/11 02:01:39;;;;;;;103.43;58.33;;;1.20;99.90;;;;;;5056377;28;20222;-47
2022/01/11 02:04:07;;;;;;;108.20;58.63;;;1.20;99.90;;;;;;5057371;28;20295;-47
2022/01/11 02:06:33;;;;;;;123.47;59.67;;;1.20;99.90;;;;;;5056513;28;20236;-47
2022/01/11 02:09:00;;;;;;;115.78;58.88;;;1.20;99.90;;;;;;5056383;28;20592;-47
2022/01/11 02:11:27;;;;;;;109.90;59.53;;;1.20;99.90;;;;;;5056643;28;20202;-47
2022/01/11 02:13:54;;;;;;;112.43;60.63;;;1.20;99.90;;;;;;5057288;28;20201;-47
2022/01/11 02:16:22;;;;;;;113.28;56.67;;;1.20;99.90;;;;;;5057064;28;20234;-46
2022/01/11 02:18:51;;;;;;;110.63;58.60;;;1.30;99.90;;;;;;5056931;28;20239;-47
2022/01/11 02:21:22;;;;;;;110.30;56.75;;;1.30;99.90;;;;;;5056865;28;20234;-46
2022/01/11 02:23:49;;;;;;;115.00;54.63;;;1.20;99.90;;;;;;5074278;28;20202;-47
2022/01/11 02:26:18;;;;;;;114.95;58.72;;;1.20;99.90;;;;;;5056438;28;20286;-47
2022/01/11 02:28:45;;;;;;;109.80;53.08;;;1.20;99.90;;;;;;5074509;28;20211;-46
2022/01/11 02:31:13;;;;;;;111.93;55.22;;;1.20;99.90;;;;;;5056162;28;20194;-47
2022/01/11 02:33:46;;;;;;;108.13;54.70;;;1.20;99.90;;;;;;5056269;28;20690;-47
2022/01/11 02:36:38;;;;;;;111.90;54.97;;;1.10;99.90;;;;;;5054471;28;20211;-46
2022/01/11 02:39:30;;;;;;;110.72;56.00;;;1.20;99.90;;;;;;5055908;28;20219;-47
2022/01/11 02:42:04;;;;;;;113.97;54.75;;;1.20;99.90;;;;;;5056325;28;20221;-46
2022/01/11 02:44:38;;;;;;;115.45;56.20;;;1.20;99.90;;;;;;5056769;28;20199;-47
2022/01/11 02:47:06;;;;;;;107.03;52.65;;;1.20;99.90;;;;;;5056485;28;20237;-47
2022/01/11 02:49:35;;;;;;;97.57;52.78;;;1.20;99.90;;;;;;5055868;28;20227;-47
2022/01/11 02:52:10;;;;;;;110.28;51.20;;;1.30;99.90;;;;;;5073039;28;20245;-47
2022/01/11 02:54:39;;;;;;;119.95;56.85;;;1.20;99.90;;;;;;5056325;28;20614;-47
2022/01/11 02:57:11;;;;;;;114.28;53.70;;;1.20;99.90;;;;;;5056275;28;20201;-47
2022/01/11 02:59:38;;;;;;;115.70;54.65;;;1.20;99.90;;;;;;5055410;28;20220;-46
2022/01/11 03:02:04;;;;;;;116.97;57.45;;;1.20;99.90;;;;;;5055954;28;20226;-47
2022/01/11 03:04:33;;;;;;;98.93;51.45;;;1.20;99.90;;;;;;5056709;28;20199;-47
2022/01/11 03:07:00;;;;;;;107.35;53.40;;;1.20;99.90;;;;;;5055953;28;20668;-47
2022/01/11 03:09:47;;;;;;;99.95;46.80;;;1.30;99.90;;;;;;5055563;28;20242;-47
2022/01/11 03:12:16;;;;;;;96.95;47.47;;;1.30;99.90;;;;;;5055750;28;20677;-46
2022/01/11 03:14:42;;;;;;;94.70;47.47;;;1.20;99.90;;;;;;5073902;28;20199;-46
2022/01/11 03:17:09;;;;;;;95.50;46.72;;;1.20;99.90;;;;;;5072543;28;20571;-46
2022/01/11 03:19:36;;;;;;;100.60;48.85;;;1.20;99.90;;;;;;5072928;28;20215;-46
2022/01/11 03:22:03;;;;;;;87.50;43.17;;;1.20;99.90;;;;;;5055214;28;20537;-46
2022/01/11 03:24:30;;;;;;;85.25;44.22;;;1.10;99.90;;;;;;5055307;28;20695;-46
2022/01/11 03:26:58;;;;;;;104.20;46.55;;;1.10;99.90;;;;;;5055570;28;20199;-46
2022/01/11 03:29:25;;;;;;;88.65;43.45;;;1.00;99.90;;;;;;5054679;28;20215;-47
2022/01/11 03:31:52;;;;;;;94.90;46.72;;;1.10;99.90;;;;;;5055744;28;20205;-47
2022/01/11 03:34:19;;;;;;;107.88;48.47;;;1.10;99.90;;;;;;5055514;28;20211;-47
2022/01/11 03:36:46;;;;;;;105.90;48.28;;;1.10;99.90;;;;;;5055305;28;20225;-47
2022/01/11 03:39:13;;;;;;;101.93;46.47;;;1.10;99.90;;;;;;5055139;28;20699;-47
2022/01/11 03:41:40;;;;;;;100.38;47.08;;;1.20;99.90;;;;;;5055925;28;20596;-47
2022/01/11 03:44:09;;;;;;;100.63;45.90;;;1.20;99.90;;;;;;5055564;28;20199;-47
2022/01/11 03:46:36;;;;;;;90.47;43.28;;;1.20;99.90;;;;;;5055467;28;20206;-47
2022/01/11 03:49:03;;;;;;;85.82;42.22;;;1.30;99.90;;;;;;5054714;28;20262;-47
2022/01/11 03:51:33;;;;;;;88.43;44.53;;;1.20;99.90;;;;;;5055653;28;20202;-47
2022/01/11 03:54:07;;;;;;;88.43;43.90;;;1.20;99.90;;;;;;5073246;28;20273;-47
2022/01/11 03:56:37;;;;;;;88.03;43.70;;;1.20;99.90;;;;;;5055482;28;20667;-47
2022/01/11 03:59:13;;;;;;;81.75;41.03;;;1.20;99.90;;;;;;5054928;28;20231;-47
2022/01/11 04:01:40;;;;;;;96.47;43.05;;;1.20;99.90;;;;;;5055106;28;20199;-47
2022/01/11 04:04:09;;;;;;;90.82;41.47;;;1.20;99.90;;;;;;5075246;28;20191;-47
2022/01/11 04:06:36;;;;;;;88.63;41.45;;;1.20;99.90;;;;;;5058964;28;20739;-47
2022/01/11 04:09:05;;;;;;;80.80;41.72;;;1.20;99.90;;;;;;5058213;28;20215;-47
2022/01/11 04:11:32;;;;;;;88.65;42.35;;;1.20;99.90;;;;;;5058572;28;20272;-46
2022/01/11 04:13:59;;;;;;;92.60;42.35;;;1.20;99.90;;;;;;5058178;28;20273;-47
2022/01/11 04:16:29;;;;;;;90.40;42.17;;;1.20;99.90;;;;;;5059046;28;20203;-47
2022/01/11 04:18:57;;;;;;;85.55;39.92;;;1.20;99.90;;;;;;5058206;28;20245;-47
2022/01/11 04:21:25;;;;;;;79.78;39.25;;;1.20;99.90;;;;;;5058751;28;20672;-47
2022/01/11 04:23:55;;;;;;;87.18;39.65;;;1.20;99.90;;;;;;5058309;28;20706;-48
2022/01/11 04:26:22;;;;;;;87.22;40.45;;;1.20;99.90;;;;;;5058468;28;20290;-47
2022/01/11 04:28:49;;;;;;;84.47;41.10;;;1.20;99.90;;;;;;5057870;28;20218;-48
2022/01/11 04:31:16;;;;;;;73.28;37.45;;;1.20;99.90;;;;;;5058712;28;20690;-47
2022/01/11 04:33:45;;;;;;;75.60;39.83;;;1.30;99.90;;;;;;5058269;28;20195;-48
2022/01/11 04:36:14;;;;;;;80.68;38.08;;;1.30;99.90;;;;;;5058119;28;20341;-47
2022/01/11 04:38:41;;;;;;;82.82;37.67;;;1.30;99.90;;;;;;5057932;28;20268;-48
2022/01/11 04:41:08;;;;;;;75.45;38.83;;;1.30;99.90;;;;;;5058376;28;20206;-48
2022/01/11 04:43:41;;;;;;;81.05;38.83;;;1.30;99.90;;;;;;5058239;28;20718;-47
2022/01/11 04:46:08;;;;;;;80.20;39.33;;;1.40;99.90;;;;;;5057931;28;20264;-47
2022/01/11 04:48:35;;;;;;;76.50;37.92;;;1.40;99.90;;;;;;5057491;28;20210;-47
2022/01/11 04:51:06;;;;;;;70.90;38.42;;;1.40;99.90;;;;;;5060464;23;20568;-49
2022/01/11 04:53:32;;;;;;;73.72;36.53;;;1.50;99.90;;;;;;5052575;28;20197;-48
2022/01/11 04:55:59;;;;;;;77.68;38.28;;;1.40;99.90;;;;;;5035777;28;20195;-48
2022/01/11 04:58:26;;;;;;;75.85;38.25;;;1.40;99.90;;;;;;5035636;28;20294;-47
2022/01/11 05:00:52;;;;;;;81.55;38.20;;;1.40;99.90;;;;;;5035396;28;20251;-47
2022/01/11 05:03:19;;;;;;;69.82;35.15;;;1.40;99.90;;;;;;5035545;28;20704;-48
2022/01/11 05:05:49;;;;;;;77.85;37.42;;;1.30;99.90;;;;;;5035703;28;20682;-48
2022/01/11 05:08:18;;;;;;;85.53;37.95;;;1.30;99.90;;;;;;5035521;28;20571;-48
2022/01/11 05:10:44;;;;;;;78.88;39.55;;;1.40;99.90;;;;;;5035123;28;20236;-47
2022/01/11 05:13:16;;;;;;;77.70;35.67;;;1.40;99.90;;;;;;5035522;28;20200;-48
2022/01/11 05:15:44;;;;;;;73.93;36.45;;;1.30;99.90;;;;;;5034451;28;20196;-50
2022/01/11 05:18:11;;;;;;;81.57;38.70;;;1.40;99.90;;;;;;5034739;28;20201;-48
2022/01/11 05:20:39;;;;;;;95.63;38.53;;;1.50;99.90;;;;;;5035065;28;20230;-48
2022/01/11 05:23:09;;;;;;;86.07;38.10;;;1.40;99.90;;;;;;5035190;28;20220;-48
2022/01/11 05:25:37;;;;;;;80.55;38.90;;;1.50;99.90;;;;;;5035032;28;20200;-47
2022/01/11 05:28:05;;;;;;;73.60;36.03;;;1.50;99.90;;;;;;5034901;28;20266;-48
2022/01/11 05:30:32;;;;;;;80.97;38.53;;;1.40;99.90;;;;;;5034947;28;20725;-48
2022/01/11 05:32:59;;;;;;;84.03;40.13;;;1.40;99.90;;;;;;5034887;28;20254;-47
2022/01/11 05:35:26;;;;;;;85.80;39.30;;;1.40;99.90;;;;;;5034629;28;20231;-48
2022/01/11 05:37:54;;;;;;;79.53;37.55;;;1.40;99.90;;;;;;5034094;28;20208;-48
2022/01/11 05:40:22;;;;;;;81.05;38.40;;;1.40;99.90;;;;;;5034703;28;20222;-45
2022/01/11 05:42:53;;;;;;;78.45;38.40;;;1.50;99.90;;;;;;5034926;28;20314;-47
2022/01/11 05:45:21;;;;;;;79.75;37.72;;;1.50;99.90;;;;;;5034582;28;20210;-49
2022/01/11 05:47:52;;;;;;;83.45;41.03;;;1.50;99.90;;;;;;5034040;28;20200;-47
2022/01/11 05:50:21;;;;;;;87.45;40.58;;;1.50;99.90;;;;;;5034444;28;20696;-47
2022/01/11 05:52:49;;;;;;;84.97;40.50;;;1.50;99.90;;;;;;5052209;28;20203;-47
2022/01/11 05:55:16;;;;;;;87.60;38.45;;;1.50;99.90;;;;;;5034436;28;20550;-47
2022/01/11 05:57:43;;;;;;;84.45;38.50;;;1.50;99.90;;;;;;5034253;28;20204;-48
2022/01/11 06:00:15;;;;;;;78.30;38.33;;;1.50;99.90;;;;;;5034465;28;20220;-47
2022/01/11 06:02:48;;;;;;;90.47;41.55;;;1.60;99.90;;;;;;5034240;28;20812;-46
2022/01/11 06:05:24;;;;;;;86.30;41.05;;;1.60;99.90;;;;;;5034601;28;20575;-47
2022/01/11 06:07:51;;;;;;;87.65;39.53;;;1.60;99.90;;;;;;5051686;28;20207;-47
2022/01/11 06:10:19;;;;;;;79.15;37.90;;;1.60;99.90;;;;;;5033901;28;20298;-49
2022/01/11 06:12:47;;;;;;;82.28;37.88;;;1.50;99.90;;;;;;5033897;28;20199;-48
2022/01/11 06:15:16;;;;;;;80.07;37.92;;;1.50;99.90;;;;;;5034285;28;20204;-48
2022/01/11 06:17:43;;;;;;;89.53;38.72;;;1.50;99.90;;;;;;5033596;28;20543;-47
2022/01/11 06:20:11;;;;;;;69.45;33.50;;;1.50;99.90;;;;;;5033899;28;20220;-49
2022/01/11 06:22:39;;;;;;;71.38;34.05;;;1.50;99.90;;;;;;5033772;28;20230;-49
2022/01/11 06:25:07;;;;;;;69.35;35.05;;;1.50;99.90;;;;;;5051910;28;20664;-47
2022/01/11 06:27:37;;;;;;;73.50;37.25;;;1.50;99.90;;;;;;5033602;28;20525;-49
2022/01/11 06:30:05;;;;;;;78.80;36.28;;;1.50;99.90;;;;;;5051673;28;20262;-48
2022/01/11 06:32:33;;;;;;;82.57;39.35;;;1.50;99.90;;;;;;5033226;28;20204;-48
2022/01/11 06:35:01;;;;;;;79.28;38.03;;;1.50;99.90;;;;;;5033679;28;20208;-48
2022/01/11 06:37:28;;;;;;;82.20;37.67;;;1.50;99.90;;;;;;5032536;28;20200;-49
2022/01/11 06:39:55;;;;;;;80.55;37.33;;;1.50;99.90;;;;;;5032199;28;20223;-49
2022/01/11 06:42:21;;;;;;;78.18;37.40;;;1.50;99.90;;;;;;5033281;28;20207;-48
2022/01/11 06:44:48;;;;;;;70.00;32.92;;;1.50;99.90;;;;;;5033262;28;20703;-49
2022/01/11 06:47:15;;;;;;;76.05;36.70;;;1.50;99.90;;;;;;5033158;28;20257;-48
2022/01/11 06:49:44;;;;;;;81.80;35.95;;;1.50;99.90;;;;;;5032253;28;20224;-49
2022/01/11 06:52:11;;;;;;;76.78;37.20;;;1.50;99.90;;;;;;5031952;28;20216;-50
2022/01/11 06:54:43;;;;;;;72.07;36.20;;;1.50;99.90;;;;;;5032963;28;20246;-47
2022/01/11 06:57:09;;;;;;;77.70;36.60;;;1.50;99.90;;;;;;5051312;28;20184;-49
2022/01/11 06:59:37;;;;;;;73.55;35.60;;;1.50;99.90;;;;;;5032009;28;20224;-48
2022/01/11 07:02:07;;;;;;;85.78;39.58;;;1.50;99.90;;;;;;5032673;28;20294;-49
2022/01/11 07:04:46;;;;;;;68.10;34.92;;;1.50;99.90;;;;;;5033126;28;20228;-49
2022/01/11 07:07:13;;;;;;;75.18;35.60;;;1.50;99.90;;;;;;5032934;28;20207;-47
2022/01/11 07:09:40;;;;;;;70.60;34.45;;;1.60;99.90;;;;;;5032394;28;20293;-48
2022/01/11 07:12:08;;;;;;;69.75;35.28;;;1.60;99.90;;;;;;5032547;28;20204;-48
2022/01/11 07:14:37;;;;;;;67.00;36.40;;;1.60;99.90;;;;;;5032773;28;20196;-48
2022/01/11 07:17:04;;;;;;;75.30;37.28;;;1.60;99.90;;;;;;5032718;28;20303;-47
2022/01/11 07:19:30;;;;;;;70.03;35.63;;;1.60;99.90;;;;;;5031882;28;20223;-49
2022/01/11 07:22:05;;;;;;;71.63;34.67;;;1.50;99.90;;;;;;5032984;28;20228;-49
2022/01/11 07:24:34;;;;;;;66.75;32.78;;;1.60;99.90;;;;;;5032606;28;20223;-50
2022/01/11 07:27:01;;;;;;;65.55;33.30;;;1.60;99.90;;;;;;5032854;28;20203;-49
2022/01/11 07:29:29;;;;;;;61.75;32.08;;;1.60;99.90;;;;;;5031545;28;20262;-48
2022/01/11 07:31:57;;;;;;;69.50;33.85;;;1.60;99.90;;;;;;5032405;28;20200;-48
2022/01/11 07:34:24;;;;;;;67.25;32.78;;;1.60;99.90;;;;;;5032425;28;20227;-49
2022/01/11 07:36:51;;;;;;;63.53;33.97;;;1.60;99.90;;;;;;5032179;28;20196;-50
2022/01/11 07:39:19;;;;;;;63.85;32.70;;;1.60;99.90;;;;;;5053572;28;20785;-49
2022/01/11 07:41:46;;;;;;;61.35;32.10;;;1.60;99.90;;;;;;5036077;28;20207;-48
2022/01/11 07:44:32;;;;;;;61.65;32.58;;;1.60;99.90;;;;;;5054311;28;20346;-50
2022/01/11 07:46:59;;;;;;;64.63;31.98;;;1.60;99.90;;;;;;5036229;28;20727;-49
2022/01/11 07:49:31;;;;;;;59.15;30.85;;;1.60;99.90;;;;;;5035629;28;20243;-51
2022/01/11 07:51:58;;;;;;;53.80;29.40;;;1.60;99.90;;;;;;5054225;28;20206;-49
2022/01/11 07:54:26;;;;;;;59.40;29.90;;;1.60;99.90;;;;;;5054296;28;20222;-50
2022/01/11 07:56:53;;;;;;;51.53;27.92;;;1.60;99.90;;;;;;5036299;28;20208;-49
2022/01/11 07:59:21;;;;;;;50.10;27.60;;;1.60;99.90;;;;;;5036207;28;20224;-48
2022/01/11 08:01:48;;;;;;;60.20;30.08;;;1.60;99.90;;;;;;5036616;28;20286;-48
2022/01/11 08:04:16;;;;;;;49.40;27.77;;;1.60;99.90;;;;;;5036025;28;20230;-49
2022/01/11 08:06:56;;;;;;;51.60;26.40;;;1.60;99.90;;;;;;5036060;28;20216;-47
2022/01/11 08:09:49;;;;;;;48.38;27.25;;;1.60;99.90;;;;;;5036177;28;20220;-49
2022/01/11 08:12:16;;;;;;;49.33;28.35;;;1.60;99.90;;;;;;5035780;28;20204;-48
2022/01/11 08:14:43;;;;;;;52.75;26.48;;;1.60;99.90;;;;;;5036307;28;20690;-48
2022/01/11 08:17:12;;;;;;;52.17;28.17;;;1.60;99.90;;;;;;5035613;28;20242;-49
2022/01/11 08:19:38;;;;;;;55.85;26.48;;;1.60;99.90;;;;;;5035832;28;20278;-48
2022/01/11 08:22:07;;;;;;;48.70;25.02;;;1.60;99.90;;;;;;5035729;28;20235;-49
2022/01/11 08:24:45;;;;;;;49.38;26.70;;;1.50;99.90;;;;;;5036126;28;20224;-49
2022/01/11 08:27:14;;;;;;;51.15;27.73;;;1.60;99.90;;;;;;5035197;28;20288;-49
2022/01/11 08:29:43;;;;;;;51.35;27.73;;;1.60;99.90;;;;;;5035595;28;20762;-48
2022/01/11 08:32:11;;;;;;;50.92;28.42;;;1.60;99.90;;;;;;5035454;28;20692;-48
2022/01/11 08:34:39;;;;;;;52.15;28.65;;;1.60;99.90;;;;;;5035660;28;20235;-48
2022/01/11 08:37:08;;;;;;;46.17;27.17;;;1.70;99.90;;;;;;5035403;28;20526;-46
2022/01/11 08:39:36;;;;;;;53.75;28.75;;;1.70;99.90;;;;;;5035721;28;20255;-47
2022/01/11 08:42:04;;;;;;;63.00;31.20;;;1.70;99.90;;;;;;5035797;28;20204;-47
2022/01/11 08:44:34;;;;;;;47.22;27.15;;;1.70;99.90;;;;;;5035726;28;20239;-47
2022/01/11 08:47:02;;;;;;;58.40;32.17;;;1.70;99.90;;;;;;5035604;28;20207;-48
2022/01/11 08:49:37;;;;;;;57.97;29.85;;;1.70;99.90;;;;;;5033780;28;20562;-47
2022/01/11 08:52:05;;;;;;;55.08;27.48;;;1.80;99.90;;;;;;5035000;28;20204;-48
2022/01/11 08:54:33;;;;;;;52.65;27.92;;;1.80;99.90;;;;;;5035237;28;20216;-49
2022/01/11 08:57:01;;;;;;;52.38;28.27;;;1.80;99.90;;;;;;5035022;28;20206;-48
2022/01/11 08:59:27;;;;;;;50.17;27.75;;;1.90;99.90;;;;;;5035415;28;20704;-49
2022/01/11 09:02:00;;;;;;;56.15;30.35;;;1.90;99.90;;;;;;5035302;28;20204;-48
2022/01/11 09:04:28;;;;;;;47.88;26.83;;;1.90;99.90;;;;;;5051938;28;20216;-48
2022/01/11 09:07:11;;;;;;;58.65;31.20;;;1.80;99.90;;;;;;5029452;28;20213;-49
2022/01/11 09:09:38;;;;;;;58.60;31.02;;;1.90;99.90;;;;;;5034987;28;20220;-47
2022/01/11 09:12:08;;;;;;;55.33;28.67;;;1.90;99.90;;;;;;5035305;28;20626;-46
2022/01/11 09:14:38;;;;;;;47.97;27.25;;;2.00;99.90;;;;;;5040155;28;20216;-46
2022/01/11 09:17:07;;;;;;;50.22;28.77;;;2.00;99.90;;;;;;5041329;28;20200;-48
2022/01/11 09:19:34;;;;;;;52.42;26.15;;;1.90;99.90;;;;;;5043575;28;20230;-50
2022/01/11 09:22:02;;;;;;;48.50;28.40;;;2.00;99.90;;;;;;5034575;28;20286;-49
2022/01/11 09:24:30;;;;;;;45.67;27.17;;;2.10;99.90;;;;;;5034281;28;20315;-49
2022/01/11 09:27:02;;;;;;;46.67;27.35;;;2.10;99.90;;;;;;5034264;28;20208;-47
2022/01/11 09:29:31;;;;;;;53.03;28.95;;;2.10;99.90;;;;;;5033718;28;20702;-50
2022/01/11 09:32:01;;;;;;;48.97;27.35;;;2.10;99.90;;;;;;5048184;28;20664;-49
2022/01/11 09:34:31;;;;;;;52.17;27.95;;;2.10;99.90;;;;;;5054384;28;20256;-48
2022/01/11 09:36:59;;;;;;;45.65;27.30;;;2.10;99.90;;;;;;5054929;28;20207;-47
2022/01/11 09:39:26;;;;;;;52.05;28.08;;;2.20;99.90;;;;;;5050285;28;20262;-48
2022/01/11 09:41:58;;;;;;;58.75;30.65;;;2.20;99.90;;;;;;5034253;28;20227;-48
2022/01/11 09:44:25;;;;;;;56.33;28.13;;;2.10;99.90;;;;;;5034190;28;20718;-47
2022/01/11 09:46:52;;;;;;;59.20;31.48;;;2.20;99.90;;;;;;5052484;28;20195;-47
2022/01/11 09:49:19;;;;;;;52.83;29.15;;;2.20;99.90;;;;;;5049348;28;20281;-48
2022/01/11 09:51:51;;;;;;;49.90;30.00;;;2.20;99.90;;;;;;5039525;28;20291;-48
2022/01/11 09:54:19;;;;;;;48.67;27.42;;;2.20;99.90;;;;;;5014523;28;20205;-49
2022/01/11 09:56:46;;;;;;;54.30;28.95;;;2.10;99.90;;;;;;5013883;28;20547;-48
2022/01/11 09:59:17;;;;;;;55.95;28.15;;;2.10;99.90;;;;;;5030717;28;20229;-49
2022/01/11 10:02:03;;;;;;;45.15;25.63;;;2.10;99.90;;;;;;5032055;28;20331;-50
2022/01/11 10:04:46;;;;;;;47.65;28.63;;;2.10;99.90;;;;;;5014840;28;20632;-50
2022/01/11 10:07:31;;;;;;;42.00;26.77;;;2.10;99.90;;;;;;5031867;28;20204;-49
2022/01/11 10:09:59;;;;;;;44.30;27.80;;;2.10;99.90;;;;;;5030720;28;21026;-48
2022/01/11 10:12:34;;;;;;;45.55;28.33;;;2.20;99.90;;;;;;5030448;28;20204;-49
2022/01/11 10:15:01;;;;;;;42.92;25.70;;;2.20;99.90;;;;;;5034024;28;20199;-49
2022/01/11 10:17:29;;;;;;;46.28;26.85;;;2.10;99.90;;;;;;5033830;28;20196;-49
2022/01/11 10:20:04;;;;;;;48.08;28.98;;;2.20;99.90;;;;;;5034238;28;20614;-49
2022/01/11 10:22:35;;;;;;;49.17;29.00;;;2.30;99.90;;;;;;5041854;28;20199;-48
2022/01/11 10:25:04;;;;;;;43.83;27.38;;;2.40;99.90;;;;;;5053783;28;20762;-48
2022/01/11 10:27:36;;;;;;;46.47;28.27;;;2.50;99.90;;;;;;5053387;28;20230;-49
2022/01/11 10:30:06;;;;;;;50.70;29.05;;;2.50;99.90;;;;;;5053594;28;20768;-48
2022/01/11 10:32:36;;;;;;;47.55;28.30;;;2.50;99.90;;;;;;5053908;28;20599;-48
2022/01/11 10:35:18;;;;;;;46.92;28.42;;;2.50;99.90;;;;;;5053843;28;20612;-48
2022/01/11 10:37:50;;;;;;;45.63;26.35;;;2.60;99.90;;;;;;5053336;28;20277;-49
2022/01/11 10:40:19;;;;;;;47.65;27.52;;;2.60;99.90;;;;;;5053325;28;20707;-49
2022/01/11 10:42:51;;;;;;;46.20;27.42;;;2.60;99.90;;;;;;5053802;28;20675;-50
2022/01/11 10:45:21;;;;;;;48.38;27.73;;;2.60;99.90;;;;;;5053762;28;20638;-49
2022/01/11 10:47:52;;;;;;;49.50;28.45;;;2.60;99.90;;;;;;5052896;28;20204;-49
2022/01/11 10:50:27;;;;;;;45.63;27.70;;;2.60;99.90;;;;;;5060186;22;20700;-45
2022/01/11 10:52:57;;;;;;;42.25;27.17;;;2.60;99.90;;;;;;5029567;28;20620;-45
2022/01/11 10:55:28;;;;;;;42.75;25.88;;;2.60;99.90;;;;;;5013843;28;20231;-47
2022/01/11 10:57:56;;;;;;;51.53;26.85;;;2.70;99.90;;;;;;5029123;28;20220;-44
2022/01/11 11:00:29;;;;;;;43.40;28.70;;;2.70;99.90;;;;;;5030279;28;20235;-44
2022/01/11 11:03:02;;;;;;;44.47;26.90;;;2.70;99.90;;;;;;5029254;28;20208;-47
2022/01/11 11:05:33;;;;;;;41.55;25.90;;;2.50;99.90;;;;;;5013402;28;20229;-46
2022/01/11 11:08:12;;;;;;;42.55;25.20;;;2.80;99.90;;;;;;5028865;28;20200;-46
2022/01/11 11:10:44;;;;;;;45.65;27.50;;;2.80;99.90;;;;;;5011420;28;20236;-46
2022/01/11 11:13:24;;;;;;;43.78;26.45;;;2.90;99.90;;;;;;5027942;28;20208;-47
2022/01/11 11:15:52;;;;;;;55.72;28.15;;;2.90;99.90;;;;;;5032658;28;20200;-45
2022/01/11 11:18:27;;;;;;;42.58;25.95;;;2.90;99.90;;;;;;5032072;28;20681;-45
2022/01/11 11:20:54;;;;;;;47.78;28.65;;;2.90;99.90;;;;;;5032597;28;20224;-45
2022/01/11 11:23:23;;;;;;;48.15;29.33;;;2.90;99.90;;;;;;5050844;28;20322;-46
2022/01/11 11:25:50;;;;;;;50.90;27.73;;;2.90;99.90;;;;;;5051133;28;20342;-45
2022/01/11 11:28:17;;;;;;;47.67;27.08;;;3.00;99.90;;;;;;5050572;28;20225;-44
2022/01/11 11:30:49;;;;;;;43.55;26.85;;;3.00;99.90;;;;;;5050873;28;20216;-45
2022/01/11 11:33:18;;;;;;;41.58;25.35;;;3.10;99.90;;;;;;5050925;28;20208;-44
2022/01/11 11:35:47;;;;;;;45.85;25.65;;;3.20;99.90;;;;;;5050189;28;20282;-46
2022/01/11 11:38:14;;;;;;;45.30;25.63;;;3.20;99.90;;;;;;5050598;28;20571;-46
2022/01/11 11:40:43;;;;;;;40.17;24.02;;;2.90;99.90;;;;;;5050719;28;20230;-46
2022/01/11 11:43:11;;;;;;;39.65;25.08;;;3.10;99.90;;;;;;5033023;28;20196;-46
2022/01/11 11:45:41;;;;;;;47.10;25.52;;;3.00;99.90;;;;;;5050168;28;20227;-47
2022/01/11 11:48:09;;;;;;;49.22;28.80;;;3.00;99.90;;;;;;5048846;28;20196;-46
2022/01/11 11:50:48;;;;;;;39.80;28.17;;;2.90;99.90;;;;;;5048439;28;20599;-45
2022/01/11 11:53:22;;;;;;;45.55;25.88;;;2.80;99.90;;;;;;5032442;28;20215;-45
2022/01/11 11:55:51;;;;;;;47.72;29.85;;;2.70;99.90;;;;;;5043953;28;20189;-48
2022/01/11 11:58:22;;;;;;;48.63;28.17;;;2.60;99.90;;;;;;5037463;28;20205;-47
2022/01/11 12:00:51;;;;;;;46.30;25.77;;;2.60;99.90;;;;;;5044450;28;20387;-45
2022/01/11 12:03:21;;;;;;;45.35;25.70;;;2.50;99.90;;;;;;5049752;28;20279;-46
2022/01/11 12:05:49;;;;;;;39.05;25.42;;;2.50;99.90;;;;;;5029927;28;20256;-46
2022/01/11 12:08:31;;;;;;;43.58;26.40;;;2.60;99.90;;;;;;5030223;28;20224;-46
2022/01/11 12:11:02;;;;;;;51.13;28.02;;;2.60;99.90;;;;;;5029921;28;20555;-46
2022/01/11 12:13:39;;;;;;;43.58;25.92;;;2.60;99.90;;;;;;5044022;28;20210;-46
2022/01/11 12:16:42;;;;;;;43.00;25.83;;;2.70;99.90;;;;;;5031536;28;20215;-47
2022/01/11 12:19:41;;;;;;;49.38;27.63;;;2.80;99.90;;;;;;5032011;28;20326;-45
2022/01/11 12:22:26;;;;;;;45.95;28.48;;;2.80;99.90;;;;;;5040461;28;20210;-47
2022/01/11 12:24:55;;;;;;;40.75;26.10;;;2.80;99.90;;;;;;5052328;28;20661;-47
2022/01/11 12:27:24;;;;;;;49.25;27.98;;;2.60;99.90;;;;;;5053840;28;20574;-47
2022/01/11 12:30:02;;;;;;;44.72;26.42;;;2.80;99.90;;;;;;5053448;28;20226;-44
2022/01/11 12:32:31;;;;;;;48.65;29.08;;;2.80;99.90;;;;;;5053848;28;20274;-44
2022/01/11 12:35:04;;;;;;;44.17;28.05;;;2.70;99.90;;;;;;5054082;28;20197;-46
2022/01/11 12:37:34;;;;;;;52.35;27.65;;;2.60;99.90;;;;;;5053657;28;20275;-46
2022/01/11 12:40:09;;;;;;;51.63;27.08;;;2.40;99.90;;;;;;5053661;28;20226;-45
2022/01/11 12:42:39;;;;;;;46.83;27.75;;;2.50;99.90;;;;;;5053743;28;20195;-47
2022/01/11 12:47:50;;;;;;;48.22;28.90;;;2.50;99.90;;;;;;5053561;28;20195;-46